| time (UTC) | temp C | wind direction | speed KPH | gust KPH | rain 1hr cm | rain 24hr cm | rain mn cm | humidity % | barometer mb |
| 20260507074604 | -17 | 0.0 | 0.0 | 0.00 | 0.00 | 0.00 | 1017.8 | ||
| 20260507073047 | -17 | 0.0 | 0.0 | 0.00 | 0.00 | 0.00 | 1017.9 | ||
| 20260507071538 | -17 | 0.0 | 0.0 | 0.00 | 0.00 | 0.00 | 1018.1 | ||
| 20260507070028 | -17 | 0.0 | 0.0 | 0.00 | 0.00 | 0.00 | 1018.1 | ||
| 20260507064516 | -17 | 0.0 | 0.0 | 0.00 | 0.00 | 0.00 | 1018.0 | ||
| 20260507063009 | -17 | 0.0 | 0.0 | 0.00 | 0.00 | 0.00 | 1018.2 | ||
| 20260507061505 | -17 | 0.0 | 0.0 | 0.00 | 0.00 | 0.00 | 1018.3 | ||
| 20260507054556 | -17 | 0.0 | 0.0 | 0.00 | 0.00 | 0.00 | 1018.2 | ||
| 20260507053102 | -17 | 0.0 | 0.0 | 0.00 | 0.00 | 0.00 | 1018.2 | ||
| 20260507051547 | -17 | 0.0 | 0.0 | 0.00 | 0.00 | 0.00 | 1018.1 | ||
| 20260507050030 | -17 | 0.0 | 0.0 | 0.00 | 0.00 | 0.00 | 1018.2 | ||
| 20260507044526 | -17 | 0.0 | 0.0 | 0.00 | 0.00 | 0.00 | 1018.2 | ||
| 20260507043009 | -17 | 0.0 | 0.0 | 0.00 | 0.00 | 0.00 | 1018.2 | ||
| 20260507041508 | -17 | 0.0 | 0.0 | 0.00 | 0.00 | 0.00 | 1018.1 | ||
| 20260507040050 | -17 | 0.0 | 0.0 | 0.00 | 0.00 | 0.00 | 1018.0 | ||
| 20260507034553 | -17 | 0.0 | 0.0 | 0.00 | 0.00 | 0.00 | 1017.9 | ||
| 20260507033044 | -17 | 0.0 | 0.0 | 0.00 | 0.00 | 0.00 | 1017.8 | ||
| 20260507031545 | -17 | 0.0 | 0.0 | 0.00 | 0.00 | 0.00 | 1017.6 | ||
| 20260507030015 | -17 | 0.0 | 0.0 | 0.00 | 0.00 | 0.00 | 1017.5 | ||
| 20260507024514 | -17 | 0.0 | 0.0 | 0.00 | 0.00 | 0.00 | 1017.4 | ||
| 20260507023055 | -17 | 0.0 | 0.0 | 0.00 | 0.00 | 0.00 | 1017.2 | ||
| 20260507021557 | -17 | 0.0 | 0.0 | 0.00 | 0.00 | 0.00 | 1017.2 | ||
| 20260507020031 | -17 | 0.0 | 0.0 | 0.00 | 0.00 | 0.00 | 1017.0 | ||
| 20260507014539 | -17 | 0.0 | 0.0 | 0.00 | 0.00 | 0.00 | 1017.1 | ||
| 20260507013005 | -17 | 0.0 | 0.0 | 0.00 | 0.00 | 0.00 | 1017.2 | ||
| 20260507011504 | -17 | 325 | 19.3 | 22.5 | 0.00 | 0.00 | 0.00 | 1017.1 | |
| 20260507010044 | -17 | 256 | 6.4 | 17.7 | 0.00 | 0.00 | 0.00 | 1017.2 | |
| 20260507004535 | -17 | 332 | 8.0 | 20.9 | 0.00 | 0.00 | 0.00 | 1017.3 | |
| 20260507003012 | -17 | 319 | 11.3 | 25.7 | 0.00 | 0.00 | 0.00 | 1017.1 | |
| 20260507001513 | -17 | 343 | 11.3 | 27.4 | 0.00 | 0.00 | 0.00 | 1017.2 | |
| 20260507000049 | -17 | 308 | 8.0 | 22.5 | 0.00 | 0.00 | 0.00 | 1017.1 | |
| 20260506234552 | -17 | 298 | 9.7 | 20.9 | 0.00 | 0.00 | 0.00 | 1017.0 | |
| 20260506233021 | -17 | 308 | 9.7 | 29.0 | 0.00 | 0.00 | 0.00 | 1017.1 | |
| 20260506231519 | -17 | 299 | 12.9 | 25.7 | 0.00 | 0.00 | 0.00 | 1017.1 | |
| 20260506224551 | -17 | 297 | 8.0 | 20.9 | 0.00 | 0.00 | 0.00 | 1017.3 | |
| 20260506223028 | -17 | 321 | 12.9 | 22.5 | 0.00 | 0.00 | 0.00 | 1017.4 | |
| 20260506221524 | -17 | 276 | 11.3 | 25.7 | 0.00 | 0.00 | 0.00 | 1017.5 | |
| 20260506220002 | -17 | 328 | 11.3 | 24.1 | 0.00 | 0.00 | 0.00 | 1017.7 | |
| 20260506214559 | -17 | 41 | 11.3 | 24.1 | 0.00 | 0.00 | 0.00 | 1017.7 | |
| 20260506213039 | -17 | 311 | 14.5 | 32.2 | 0.00 | 0.00 | 0.00 | 1017.7 | |
| 20260506211532 | -17 | 352 | 9.7 | 24.1 | 0.00 | 0.00 | 0.00 | 1017.7 | |
| 20260506210016 | -17 | 322 | 11.3 | 32.2 | 0.00 | 0.00 | 0.00 | 1017.7 | |
| 20260506204505 | -17 | 270 | 8.0 | 27.4 | 0.00 | 0.00 | 0.00 | 1017.7 | |
| 20260506203044 | -17 | 318 | 14.5 | 27.4 | 0.00 | 0.00 | 0.00 | 1017.7 | |
| 20260506201540 | -17 | 325 | 12.9 | 24.1 | 0.00 | 0.00 | 0.00 | 1017.8 | |
| 20260506200020 | -17 | 301 | 14.5 | 29.0 | 0.00 | 0.00 | 0.00 | 1017.9 | |
| 20260506194520 | -17 | 319 | 11.3 | 22.5 | 0.00 | 0.00 | 0.00 | 1017.8 | |
| 20260506193001 | -17 | 334 | 4.8 | 22.5 | 0.00 | 0.00 | 0.00 | 1017.9 | |
| 20260506191502 | -17 | 311 | 6.4 | 24.1 | 0.00 | 0.00 | 0.00 | 1018.1 | |
| 20260506190044 | -17 | 305 | 6.4 | 22.5 | 0.00 | 0.00 | 0.00 | 1018.2 | |
| 20260506184549 | -17 | 266 | 6.4 | 14.5 | 0.00 | 0.00 | 0.00 | 1018.3 | |
| 20260506183024 | -17 | 266 | 8.0 | 19.3 | 0.00 | 0.00 | 0.00 | 1018.3 | |
| 20260506181524 | -17 | 281 | 6.4 | 14.5 | 0.00 | 0.00 | 0.00 | 1018.4 | |
| 20260506180012 | -17 | 285 | 6.4 | 17.7 | 0.00 | 0.00 | 0.00 | 1018.5 | |
| 20260506174504 | -17 | 330 | 6.4 | 16.1 | 0.00 | 0.00 | 0.00 | 1018.5 | |
| 20260506173117 | -17 | 293 | 8.0 | 19.3 | 0.00 | 0.00 | 0.00 | 1018.4 | |
| 20260506171538 | -17 | 305 | 1.6 | 14.5 | 0.00 | 0.00 | 0.00 | 1018.5 | |
| 20260506170017 | -17 | 252 | 3.2 | 11.3 | 0.00 | 0.00 | 0.00 | 1018.4 | |
| 20260506164517 | -17 | 325 | 1.6 | 9.7 | 0.00 | 0.00 | 0.00 | 1018.4 | |
| 20260506163106 | -17 | 319 | 3.2 | 9.7 | 0.00 | 0.00 | 0.00 | 1018.4 | |
| 20260506161636 | -17 | 1 | 3.2 | 9.7 | 0.00 | 0.00 | 0.00 | 1018.5 | |
| 20260506160035 | -17 | 257 | 1.6 | 6.4 | 0.00 | 0.00 | 0.00 | 1018.6 | |
| 20260506154530 | -17 | 256 | 1.6 | 6.4 | 0.00 | 0.00 | 0.00 | 1018.7 | |
| 20260506153009 | -17 | 255 | 1.6 | 4.8 | 0.00 | 0.00 | 0.00 | 1018.6 | |
| 20260506151505 | -17 | 263 | 1.6 | 4.8 | 0.00 | 0.00 | 0.00 | 1018.8 | |
| 20260506150044 | -17 | 328 | 0.0 | 3.2 | 0.00 | 0.00 | 0.00 | 1018.7 | |
| 20260506144542 | -17 | 0.0 | 0.0 | 0.00 | 0.00 | 0.00 | 1018.7 | ||
| 20260506143026 | -17 | 328 | 0.0 | 1.6 | 0.00 | 0.00 | 0.00 | 1018.6 | |
| 20260506141518 | -17 | 327 | 0.0 | 0.0 | 0.00 | 0.00 | 0.00 | 1018.5 | |
| 20260506140015 | -17 | 328 | 0.0 | 0.0 | 0.00 | 0.00 | 0.00 | 1018.3 | |
| 20260506134509 | -17 | 0.0 | 0.0 | 0.00 | 0.00 | 0.00 | 1018.1 | ||
| 20260506133006 | -17 | 0.0 | 0.0 | 0.00 | 0.00 | 0.00 | 1017.8 | ||
| 20260506131604 | -17 | 0.0 | 0.0 | 0.00 | 0.00 | 0.00 | 1017.7 | ||
| 20260506130131 | -17 | 0.0 | 0.0 | 0.00 | 0.00 | 0.00 | 1017.7 | ||
| 20260506124558 | -17 | 0.0 | 0.0 | 0.00 | 0.00 | 0.00 | 1017.8 | ||
| 20260506123048 | -17 | 0.0 | 0.0 | 0.00 | 0.00 | 0.00 | 1017.9 | ||
| 20260506121526 | -17 | 0.0 | 0.0 | 0.00 | 0.00 | 0.00 | 1017.7 | ||
| 20260506120022 | -17 | 0.0 | 0.0 | 0.00 | 0.00 | 0.00 | 1017.8 | ||
| 20260506114558 | -17 | 0.0 | 0.0 | 0.00 | 0.00 | 0.00 | 1017.7 | ||
| 20260506113057 | -17 | 0.0 | 0.0 | 0.00 | 0.00 | 0.00 | 1017.8 | ||
| 20260506111532 | -17 | 0.0 | 0.0 | 0.00 | 0.00 | 0.00 | 1017.7 | ||
| 20260506110030 | -17 | 0.0 | 0.0 | 0.00 | 0.00 | 0.00 | 1017.6 | ||
| 20260506104506 | -17 | 0.0 | 0.0 | 0.00 | 0.00 | 0.00 | 1017.7 | ||
| 20260506103002 | -17 | 0.0 | 0.0 | 0.00 | 0.00 | 0.00 | 1017.6 | ||
| 20260506101551 | -17 | 0.0 | 0.0 | 0.00 | 0.00 | 0.00 | 1017.7 | ||
| 20260506100057 | -17 | 0.0 | 0.0 | 0.00 | 0.00 | 0.00 | 1017.6 | ||
| 20260506094522 | -17 | 0.0 | 0.0 | 0.00 | 0.00 | 0.00 | 1017.7 | ||
| 20260506093014 | -17 | 0.0 | 0.0 | 0.00 | 0.00 | 0.00 | 1017.8 | ||
| 20260506091548 | -17 | 0.0 | 0.0 | 0.00 | 0.00 | 0.00 | 1017.7 | ||
| 20260506090045 | -17 | 0.0 | 0.0 | 0.00 | 0.00 | 0.00 | 1017.8 | ||
| 20260506084523 | -17 | 0.0 | 0.0 | 0.00 | 0.00 | 0.00 | 1017.9 | ||
| 20260506083018 | -17 | 0.0 | 0.0 | 0.00 | 0.00 | 0.00 | 1017.9 | ||
| 20260506081600 | -17 | 0.0 | 0.0 | 0.00 | 0.00 | 0.00 | 1018.0 |